Time;durP1;ratioP1;P1;durP2;ratioP2;P2;SDS_P1;SDS_P2;PMS_P1;PMS_P2;Temp;Humidity;BMP_temperature;BMP_pressure;BME280_temperature;BME280_humidity;BME280_pressure;Samples;Min_cycle;Max_cycle;Signal;HPM_P1;HPM_P2
2023/03/26 05:00:24;;;;;;;6.13;2.67;;;9.40;97.20;;;;;;1707464;28;20683;-66
2023/03/26 05:01:15;;;;;;;3.20;2.00;;;9.40;97.20;;;;;;1706839;29;20262;-66
2023/03/26 05:02:08;;;;;;;5.05;2.70;;;9.40;97.20;;;;;;1707258;29;20203;-66
2023/03/26 05:03:00;;;;;;;5.22;2.30;;;9.50;97.20;;;;;;1707288;29;20203;-66
2023/03/26 05:03:52;;;;;;;2.85;2.10;;;9.50;97.20;;;;;;1707407;29;20230;-66
2023/03/26 05:04:44;;;;;;;8.30;2.92;;;9.50;97.20;;;;;;1707628;29;20217;-66
2023/03/26 05:05:36;;;;;;;6.47;2.40;;;9.50;97.20;;;;;;1707188;29;20198;-67
2023/03/26 05:06:27;;;;;;;4.22;1.92;;;9.60;97.20;;;;;;1707303;29;20202;-65
2023/03/26 05:07:22;;;;;;;5.28;2.53;;;9.60;97.20;;;;;;1707210;29;20231;-65
2023/03/26 05:08:13;;;;;;;5.15;2.70;;;9.60;97.20;;;;;;1707263;29;20206;-67
2023/03/26 05:09:09;;;;;;;4.17;2.70;;;9.60;97.20;;;;;;1707277;29;20799;-66
2023/03/26 05:10:02;;;;;;;6.35;3.00;;;9.60;97.20;;;;;;1707492;28;20589;-66
2023/03/26 05:10:54;;;;;;;6.22;3.33;;;9.60;97.20;;;;;;1707273;28;20285;-67
2023/03/26 05:11:47;;;;;;;6.15;3.20;;;9.60;97.20;;;;;;1706672;29;20684;-66
2023/03/26 05:12:39;;;;;;;3.47;2.38;;;9.60;97.20;;;;;;1707191;28;20206;-66
2023/03/26 05:13:30;;;;;;;4.95;2.42;;;9.60;97.20;;;;;;1707317;28;20584;-67
2023/03/26 05:14:22;;;;;;;7.10;2.60;;;9.60;97.20;;;;;;1707205;28;20199;-67
2023/03/26 05:15:14;;;;;;;4.10;2.80;;;9.60;97.20;;;;;;1707013;29;20668;-66
2023/03/26 05:16:08;;;;;;;3.45;2.00;;;9.60;97.20;;;;;;1707384;29;20634;-66
2023/03/26 05:17:00;;;;;;;3.92;1.73;;;9.60;97.20;;;;;;1707290;29;20210;-65
2023/03/26 05:17:54;;;;;;;5.22;2.30;;;9.60;97.20;;;;;;1707252;29;20248;-66
2023/03/26 05:18:45;;;;;;;2.63;1.70;;;9.70;97.20;;;;;;1707440;29;20240;-66
2023/03/26 05:19:37;;;;;;;7.13;2.55;;;9.60;97.20;;;;;;1707322;29;20202;-66
2023/03/26 05:20:29;;;;;;;4.65;2.92;;;9.70;97.20;;;;;;1707163;28;20657;-66
2023/03/26 05:21:22;;;;;;;10.40;4.30;;;9.70;97.20;;;;;;1706760;29;20664;-66
2023/03/26 05:22:13;;;;;;;6.65;2.55;;;9.70;97.20;;;;;;1707311;29;20206;-67
2023/03/26 05:23:06;;;;;;;6.53;2.10;;;9.70;97.20;;;;;;1707447;29;20294;-67
2023/03/26 05:23:57;;;;;;;5.65;2.47;;;9.70;97.20;;;;;;1707375;29;20597;-66
2023/03/26 05:24:49;;;;;;;4.53;2.53;;;9.70;97.20;;;;;;1707064;28;20202;-68
2023/03/26 05:25:40;;;;;;;6.47;3.55;;;9.70;97.20;;;;;;1707035;29;20214;-65
2023/03/26 05:26:32;;;;;;;7.05;4.32;;;9.70;97.20;;;;;;1707124;29;20194;-66
2023/03/26 05:27:23;;;;;;;5.20;3.33;;;9.70;97.20;;;;;;1707257;28;20227;-65
2023/03/26 05:28:14;;;;;;;5.70;2.83;;;9.70;97.20;;;;;;1707375;29;20209;-67
2023/03/26 05:29:05;;;;;;;4.72;1.92;;;9.70;97.20;;;;;;1707036;29;20233;-66
2023/03/26 05:30:00;;;;;;;5.13;1.63;;;9.70;97.20;;;;;;1707203;29;20657;-66
2023/03/26 05:30:52;;;;;;;4.82;1.90;;;9.70;97.20;;;;;;1706910;29;20485;-66
2023/03/26 05:31:47;;;;;;;5.38;1.60;;;9.70;97.20;;;;;;1706510;29;20194;-66
2023/03/26 05:32:38;;;;;;;4.80;2.00;;;9.70;97.20;;;;;;1707268;29;20214;-66
2023/03/26 05:33:29;;;;;;;3.60;1.80;;;9.60;97.20;;;;;;1707345;29;20230;-65
2023/03/26 05:34:23;;;;;;;2.70;1.40;;;9.60;97.20;;;;;;1707247;29;20211;-66
2023/03/26 05:35:15;;;;;;;4.05;1.52;;;9.60;97.20;;;;;;1707012;29;20282;-66
2023/03/26 05:36:11;;;;;;;3.60;1.83;;;9.60;97.20;;;;;;1707283;29;20202;-67
2023/03/26 05:37:05;;;;;;;5.65;2.53;;;9.60;97.20;;;;;;1707375;28;20270;-66
2023/03/26 05:37:56;;;;;;;6.60;2.67;;;9.60;97.20;;;;;;1707110;29;20254;-66
2023/03/26 05:38:48;;;;;;;5.53;2.80;;;9.60;97.20;;;;;;1707381;29;20721;-66
2023/03/26 05:39:40;;;;;;;7.10;2.63;;;9.60;97.20;;;;;;1706882;28;20249;-65
2023/03/26 05:40:31;;;;;;;8.85;2.85;;;9.70;97.20;;;;;;1706393;29;20239;-66
2023/03/26 05:41:22;;;;;;;4.90;2.30;;;9.70;97.20;;;;;;1706730;29;20210;-65
2023/03/26 05:42:14;;;;;;;5.47;2.40;;;9.70;97.20;;;;;;1707210;29;20209;-66
2023/03/26 05:43:05;;;;;;;7.05;2.08;;;9.70;97.20;;;;;;1707282;29;20214;-66
2023/03/26 05:43:56;;;;;;;3.10;1.83;;;9.70;97.20;;;;;;1707166;29;20214;-65
2023/03/26 05:44:47;;;;;;;4.88;2.50;;;9.70;97.20;;;;;;1707322;29;20210;-66
2023/03/26 05:45:39;;;;;;;4.07;1.60;;;9.70;97.20;;;;;;1707080;29;20203;-65
2023/03/26 05:46:30;;;;;;;2.65;1.90;;;9.70;97.20;;;;;;1707069;29;20446;-66
2023/03/26 05:47:23;;;;;;;4.00;1.30;;;9.70;97.20;;;;;;1707122;29;20234;-66
2023/03/26 05:48:14;;;;;;;3.53;1.50;;;9.70;97.20;;;;;;1707260;29;20594;-66
2023/03/26 05:49:05;;;;;;;3.00;1.50;;;9.70;97.20;;;;;;1707111;28;20585;-67
2023/03/26 05:49:56;;;;;;;6.32;1.60;;;9.70;97.20;;;;;;1707037;29;20476;-66
2023/03/26 05:50:48;;;;;;;7.13;2.37;;;9.70;97.20;;;;;;1707084;29;20392;-65
2023/03/26 05:51:39;;;;;;;5.57;1.70;;;9.70;97.20;;;;;;1706784;29;20241;-65
2023/03/26 05:52:31;;;;;;;4.60;1.40;;;9.70;97.20;;;;;;1707190;29;20301;-65
2023/03/26 05:53:24;;;;;;;4.95;1.40;;;9.70;97.20;;;;;;1707208;29;20582;-66
2023/03/26 05:54:16;;;;;;;2.80;1.50;;;9.70;97.20;;;;;;1707157;28;20211;-67
2023/03/26 05:55:07;;;;;;;4.90;1.73;;;9.70;97.20;;;;;;1707138;29;20574;-66
2023/03/26 05:55:59;;;;;;;3.00;1.60;;;9.70;97.20;;;;;;1706871;28;20660;-64
2023/03/26 05:56:50;;;;;;;5.80;1.95;;;9.70;97.20;;;;;;1707023;29;20309;-66
2023/03/26 05:57:42;;;;;;;5.80;2.10;;;9.70;97.20;;;;;;1707350;28;20203;-67
2023/03/26 05:58:33;;;;;;;5.70;1.60;;;9.70;97.20;;;;;;1707132;29;20346;-66
2023/03/26 05:59:25;;;;;;;5.40;2.80;;;9.70;97.20;;;;;;1706803;29;20194;-66
2023/03/26 06:00:17;;;;;;;6.90;2.42;;;9.70;97.20;;;;;;1707054;29;20203;-66
2023/03/26 06:01:15;;;;;;;7.15;4.07;;;9.70;97.20;;;;;;1706681;29;20195;-66
2023/03/26 06:02:06;;;;;;;10.77;5.40;;;9.70;97.20;;;;;;1706953;29;20211;-66
2023/03/26 06:02:59;;;;;;;8.88;4.25;;;9.70;97.20;;;;;;1707211;28;20199;-68
2023/03/26 06:03:51;;;;;;;6.95;3.30;;;9.70;97.20;;;;;;1707044;29;20214;-66
2023/03/26 06:04:44;;;;;;;7.07;3.40;;;9.70;97.20;;;;;;1707269;29;20230;-66
2023/03/26 06:05:36;;;;;;;7.07;3.75;;;9.70;97.20;;;;;;1706796;29;20237;-67
2023/03/26 06:06:27;;;;;;;5.32;3.50;;;9.70;97.20;;;;;;1706884;29;20253;-66
2023/03/26 06:07:18;;;;;;;6.40;2.17;;;9.70;97.20;;;;;;1706876;29;20227;-66
2023/03/26 06:08:10;;;;;;;5.47;2.10;;;9.70;97.20;;;;;;1706538;29;20234;-68
2023/03/26 06:09:03;;;;;;;4.07;2.08;;;9.70;97.20;;;;;;1706335;29;20461;-66
2023/03/26 06:09:55;;;;;;;6.32;2.03;;;9.70;97.20;;;;;;1706668;29;20209;-66
2023/03/26 06:10:45;;;;;;;3.80;1.55;;;9.70;97.20;;;;;;1706895;29;20234;-66
2023/03/26 06:11:37;;;;;;;2.77;1.57;;;9.70;97.20;;;;;;1706625;29;20201;-66
2023/03/26 06:12:28;;;;;;;5.05;1.83;;;9.70;97.20;;;;;;1706882;29;20211;-67
2023/03/26 06:13:20;;;;;;;6.43;1.83;;;9.70;97.20;;;;;;1706631;29;20206;-66
2023/03/26 06:14:10;;;;;;;3.47;1.75;;;9.70;97.20;;;;;;1706798;29;20214;-65
2023/03/26 06:15:02;;;;;;;3.20;1.37;;;9.70;97.20;;;;;;1707047;29;20246;-67
2023/03/26 06:15:53;;;;;;;7.25;1.80;;;9.70;97.20;;;;;;1707013;29;20222;-66
2023/03/26 06:16:45;;;;;;;5.00;1.40;;;9.70;97.20;;;;;;1707257;29;20202;-66
2023/03/26 06:17:35;;;;;;;3.58;1.67;;;9.70;97.20;;;;;;1707014;29;20529;-67
2023/03/26 06:18:28;;;;;;;4.40;1.97;;;9.70;97.20;;;;;;1706798;28;20202;-65
2023/03/26 06:19:19;;;;;;;3.95;1.73;;;9.80;97.20;;;;;;1707270;29;20590;-66
2023/03/26 06:20:12;;;;;;;5.90;1.87;;;9.80;97.20;;;;;;1706779;29;20573;-65
2023/03/26 06:21:04;;;;;;;4.97;1.80;;;9.80;97.20;;;;;;1700065;29;20218;-65
2023/03/26 06:21:56;;;;;;;4.60;1.85;;;9.80;97.20;;;;;;1700384;29;20262;-65
2023/03/26 06:22:47;;;;;;;5.25;1.70;;;9.80;97.20;;;;;;1700708;29;20672;-65
2023/03/26 06:23:38;;;;;;;7.70;1.90;;;9.80;97.20;;;;;;1700839;29;20541;-67
2023/03/26 06:24:29;;;;;;;5.22;2.00;;;9.80;97.20;;;;;;1700679;29;20203;-65
2023/03/26 06:25:21;;;;;;;5.90;1.70;;;9.80;97.20;;;;;;1700505;29;20199;-65
2023/03/26 06:26:12;;;;;;;6.97;2.17;;;9.80;97.20;;;;;;1700666;29;20462;-66
2023/03/26 06:27:03;;;;;;;5.30;1.80;;;9.90;97.20;;;;;;1700592;29;20286;-65
2023/03/26 06:27:54;;;;;;;3.63;2.10;;;9.90;97.20;;;;;;1700773;29;20583;-66
2023/03/26 06:28:46;;;;;;;3.37;1.60;;;9.90;97.20;;;;;;1700710;29;20587;-65
2023/03/26 06:29:37;;;;;;;5.57;1.80;;;9.90;97.20;;;;;;1700664;29;20214;-65
2023/03/26 06:30:28;;;;;;;6.43;1.30;;;9.90;97.20;;;;;;1702751;29;20205;-64
2023/03/26 06:31:19;;;;;;;1.88;1.50;;;9.90;97.20;;;;;;1707117;29;20672;-66
2023/03/26 06:32:11;;;;;;;5.30;1.63;;;9.90;97.20;;;;;;1707348;29;20653;-65
2023/03/26 06:33:02;;;;;;;4.55;1.50;;;9.90;97.20;;;;;;1707298;29;20209;-65
2023/03/26 06:33:55;;;;;;;4.10;1.53;;;9.90;97.20;;;;;;1707093;29;20209;-66
2023/03/26 06:34:45;;;;;;;5.97;1.60;;;9.90;97.20;;;;;;1706988;29;20210;-65
2023/03/26 06:35:37;;;;;;;4.90;1.73;;;9.90;97.20;;;;;;1707128;29;20202;-65
2023/03/26 06:36:28;;;;;;;4.50;1.30;;;9.90;97.20;;;;;;1707193;29;20501;-66
2023/03/26 06:37:20;;;;;;;4.40;1.73;;;9.90;97.20;;;;;;1707302;29;20209;-66
2023/03/26 06:38:11;;;;;;;4.07;1.52;;;9.90;97.20;;;;;;1707280;29;20207;-64
2023/03/26 06:39:02;;;;;;;7.43;1.80;;;9.80;97.20;;;;;;1707257;29;20199;-64
2023/03/26 06:39:53;;;;;;;4.97;1.88;;;9.80;97.20;;;;;;1707212;29;20590;-65
2023/03/26 06:40:45;;;;;;;5.40;1.80;;;9.80;97.20;;;;;;1706906;29;20599;-67
2023/03/26 06:41:36;;;;;;;5.93;1.88;;;9.80;97.20;;;;;;1707056;29;20575;-65
2023/03/26 06:42:27;;;;;;;6.03;1.87;;;9.80;97.20;;;;;;1707238;29;20273;-66
2023/03/26 06:43:18;;;;;;;4.75;1.83;;;9.80;97.20;;;;;;1707186;29;20211;-67
2023/03/26 06:44:11;;;;;;;6.77;1.93;;;9.80;97.20;;;;;;1707237;29;20209;-66
2023/03/26 06:45:02;;;;;;;5.82;1.55;;;9.80;97.20;;;;;;1707232;29;20211;-65
2023/03/26 06:45:53;;;;;;;4.47;1.63;;;9.80;97.20;;;;;;1706904;29;20294;-65
2023/03/26 06:46:44;;;;;;;4.03;1.45;;;9.80;97.20;;;;;;1707139;29;20198;-67
2023/03/26 06:47:36;;;;;;;5.15;1.90;;;9.80;97.20;;;;;;1707111;29;20639;-66
2023/03/26 06:48:27;;;;;;;4.40;1.40;;;9.80;97.20;;;;;;1707211;29;20218;-65
2023/03/26 06:49:20;;;;;;;5.22;1.63;;;9.80;97.20;;;;;;1707274;29;20194;-65
2023/03/26 06:50:11;;;;;;;4.75;2.10;;;9.80;97.20;;;;;;1707207;28;20217;-66
2023/03/26 06:51:03;;;;;;;4.60;1.77;;;9.80;97.20;;;;;;1706985;29;20203;-65
2023/03/26 06:51:54;;;;;;;6.07;1.75;;;9.80;97.20;;;;;;1706870;29;20216;-65
2023/03/26 06:52:46;;;;;;;4.57;1.55;;;9.80;97.20;;;;;;1707133;29;20201;-66
2023/03/26 06:53:36;;;;;;;8.02;1.80;;;9.80;97.20;;;;;;1707159;29;20199;-67
2023/03/26 06:54:28;;;;;;;3.10;1.40;;;9.80;97.20;;;;;;1707206;29;20207;-66
2023/03/26 06:55:20;;;;;;;5.85;1.75;;;9.80;97.20;;;;;;1706893;29;20207;-66
2023/03/26 06:56:11;;;;;;;6.70;2.53;;;9.80;97.20;;;;;;1707185;29;20206;-65
2023/03/26 06:57:02;;;;;;;6.78;1.70;;;9.80;97.20;;;;;;1707147;29;20668;-65
2023/03/26 06:57:56;;;;;;;6.23;1.50;;;9.70;97.20;;;;;;1707189;29;20544;-65
2023/03/26 06:58:47;;;;;;;3.85;1.60;;;9.70;97.20;;;;;;1707260;29;20560;-66
2023/03/26 06:59:39;;;;;;;6.00;1.70;;;9.70;97.20;;;;;;1707305;28;20568;-65
2023/03/26 07:00:30;;;;;;;3.20;1.90;;;9.70;97.20;;;;;;1706849;29;20217;-65
2023/03/26 07:01:21;;;;;;;3.53;1.30;;;9.70;97.20;;;;;;1707206;28;20195;-65
2023/03/26 07:02:12;;;;;;;5.13;1.60;;;9.70;97.20;;;;;;1707316;28;20574;-66
2023/03/26 07:03:04;;;;;;;6.00;1.70;;;9.70;97.20;;;;;;1707173;28;20289;-67
2023/03/26 07:03:55;;;;;;;2.22;1.00;;;9.70;97.20;;;;;;1707251;29;20683;-65
2023/03/26 07:04:48;;;;;;;4.17;1.70;;;9.70;97.20;;;;;;1707202;29;20613;-65
2023/03/26 07:05:40;;;;;;;2.70;1.70;;;9.70;97.20;;;;;;1707051;29;20211;-66
2023/03/26 07:06:32;;;;;;;2.97;1.40;;;9.70;97.20;;;;;;1707240;29;20727;-65
2023/03/26 07:07:23;;;;;;;4.72;2.40;;;9.70;97.20;;;;;;1707118;29;20206;-65
2023/03/26 07:08:15;;;;;;;4.53;1.95;;;9.70;97.20;;;;;;1707224;29;20724;-64
2023/03/26 07:09:06;;;;;;;6.15;2.45;;;9.70;97.20;;;;;;1707198;29;20640;-66
2023/03/26 07:09:58;;;;;;;6.40;1.80;;;9.70;97.20;;;;;;1707059;28;20226;-65
2023/03/26 07:10:48;;;;;;;4.95;1.80;;;9.80;97.20;;;;;;1707087;29;20230;-65
2023/03/26 07:11:40;;;;;;;2.53;1.60;;;9.70;97.20;;;;;;1707216;28;20202;-66
2023/03/26 07:12:31;;;;;;;4.50;2.00;;;9.70;97.20;;;;;;1707234;29;20218;-66
2023/03/26 07:13:23;;;;;;;8.27;1.87;;;9.70;97.20;;;;;;1707261;29;20285;-65
2023/03/26 07:14:13;;;;;;;3.90;1.38;;;9.70;97.20;;;;;;1707210;29;20209;-65
2023/03/26 07:15:06;;;;;;;6.13;1.50;;;9.70;97.20;;;;;;1707194;29;20209;-65
2023/03/26 07:15:57;;;;;;;4.63;1.67;;;9.70;97.20;;;;;;1706962;29;20207;-67
2023/03/26 07:16:49;;;;;;;5.63;1.97;;;9.70;97.20;;;;;;1707106;29;20735;-64
2023/03/26 07:17:40;;;;;;;6.03;1.85;;;9.70;97.20;;;;;;1707275;29;20214;-65
2023/03/26 07:18:32;;;;;;;4.43;1.80;;;9.70;97.20;;;;;;1707293;28;20290;-64
2023/03/26 07:19:22;;;;;;;3.13;1.80;;;9.70;97.20;;;;;;1707235;29;20209;-66
2023/03/26 07:20:16;;;;;;;2.60;1.70;;;9.70;97.20;;;;;;1706842;28;20205;-65
2023/03/26 07:21:07;;;;;;;4.03;2.05;;;9.70;97.20;;;;;;1707145;29;20207;-64
2023/03/26 07:22:00;;;;;;;3.42;1.60;;;9.70;97.20;;;;;;1707252;28;20202;-64
2023/03/26 07:22:51;;;;;;;4.70;1.90;;;9.70;97.20;;;;;;1707158;28;20226;-65
2023/03/26 07:23:44;;;;;;;4.35;1.80;;;9.70;97.20;;;;;;1707150;29;20202;-65
2023/03/26 07:24:35;;;;;;;4.82;1.60;;;9.70;97.20;;;;;;1707171;29;20233;-64
2023/03/26 07:25:28;;;;;;;4.13;1.63;;;9.70;97.20;;;;;;1706936;29;20691;-65
2023/03/26 07:26:26;;;;;;;5.85;2.03;;;9.70;97.20;;;;;;1707202;29;20206;-65
2023/03/26 07:27:34;;;;;;;8.38;1.63;;;9.60;97.20;;;;;;1706936;29;20198;-65
2023/03/26 07:28:33;;;;;;;7.45;2.92;;;9.60;97.20;;;;;;1706470;29;20672;-66
2023/03/26 07:29:33;;;;;;;4.18;1.55;;;9.60;97.20;;;;;;1704333;29;20199;-66
2023/03/26 07:30:32;;;;;;;4.60;2.33;;;9.60;97.20;;;;;;1702180;29;20207;-66
2023/03/26 07:31:28;;;;;;;3.45;1.48;;;9.60;97.20;;;;;;1706613;29;20199;-66
2023/03/26 07:32:27;;;;;;;5.45;1.98;;;9.50;97.20;;;;;;1706809;28;20637;-66
2023/03/26 07:33:23;;;;;;;6.38;1.95;;;9.50;97.20;;;;;;1706592;29;20202;-65
2023/03/26 07:34:26;;;;;;;3.47;2.25;;;9.50;97.20;;;;;;1706693;28;20604;-66
2023/03/26 07:35:23;;;;;;;3.00;1.98;;;9.50;97.20;;;;;;1706416;29;20558;-65
2023/03/26 07:36:24;;;;;;;5.15;1.65;;;9.50;97.20;;;;;;1706688;28;20203;-66
2023/03/26 07:37:35;;;;;;;3.08;1.60;;;9.50;97.20;;;;;;1706696;29;20195;-65
2023/03/26 07:38:40;;;;;;;5.25;1.73;;;9.50;97.20;;;;;;1704500;29;20199;-66
2023/03/26 07:39:45;;;;;;;4.70;1.55;;;9.50;97.20;;;;;;1705250;29;20706;-66
2023/03/26 07:40:48;;;;;;;5.50;1.95;;;9.40;97.20;;;;;;1703488;29;20211;-66
2023/03/26 07:41:44;;;;;;;5.63;2.40;;;9.40;97.20;;;;;;1706697;28;20199;-66
2023/03/26 07:42:47;;;;;;;8.80;2.92;;;9.40;97.20;;;;;;1706621;29;20736;-66
2023/03/26 07:43:53;;;;;;;7.07;1.80;;;9.30;97.20;;;;;;1706694;28;20203;-65
2023/03/26 07:44:54;;;;;;;3.05;1.50;;;9.30;97.20;;;;;;1704257;29;20198;-66
2023/03/26 07:45:45;;;;;;;7.55;1.85;;;9.30;97.20;;;;;;1704119;29;20203;-67
2023/03/26 07:46:38;;;;;;;3.17;1.52;;;9.30;97.20;;;;;;1706573;28;20257;-65
2023/03/26 07:47:31;;;;;;;5.85;1.85;;;9.30;97.20;;;;;;1706709;29;20203;-67
2023/03/26 07:48:29;;;;;;;5.70;1.50;;;9.30;97.20;;;;;;1706451;28;20313;-67
2023/03/26 07:49:20;;;;;;;3.38;2.10;;;9.30;97.20;;;;;;1706721;28;20194;-66
2023/03/26 07:50:15;;;;;;;4.30;1.65;;;9.30;97.20;;;;;;1706359;29;20203;-66
2023/03/26 07:51:09;;;;;;;3.90;2.55;;;9.30;97.20;;;;;;1704344;29;20199;-66
2023/03/26 07:52:01;;;;;;;5.10;1.77;;;9.30;97.20;;;;;;1706617;28;20643;-66
2023/03/26 07:52:53;;;;;;;5.10;1.60;;;9.30;97.20;;;;;;1706553;29;20206;-66
2023/03/26 07:53:45;;;;;;;4.45;2.00;;;9.30;97.20;;;;;;1704041;29;20266;-66
2023/03/26 07:54:36;;;;;;;3.25;1.80;;;9.30;97.20;;;;;;1706582;28;20238;-66
2023/03/26 07:55:28;;;;;;;4.65;2.00;;;9.30;97.20;;;;;;1706302;28;20191;-66
2023/03/26 07:56:32;;;;;;;5.40;1.80;;;9.30;97.20;;;;;;1706533;28;20199;-66
2023/03/26 07:57:35;;;;;;;5.10;2.05;;;9.40;97.20;;;;;;1706593;28;20206;-67
2023/03/26 07:58:46;;;;;;;5.72;2.17;;;9.40;97.20;;;;;;1704466;29;20206;-65
2023/03/26 07:59:42;;;;;;;5.15;2.30;;;9.40;97.20;;;;;;1705830;29;20273;-65
2023/03/26 08:00:39;;;;;;;5.40;2.72;;;9.40;97.20;;;;;;1703632;29;20613;-66
2023/03/26 08:01:48;;;;;;;4.93;2.50;;;9.40;97.20;;;;;;1706714;29;20705;-65
2023/03/26 08:02:48;;;;;;;3.30;1.90;;;9.40;97.20;;;;;;1705888;28;20195;-66
2023/03/26 08:04:08;;;;;;;4.70;2.40;;;9.40;97.20;;;;;;1706912;29;20195;-66
2023/03/26 08:05:18;;;;;;;6.00;2.47;;;9.40;97.20;;;;;;1707217;29;20206;-65
2023/03/26 08:06:16;;;;;;;4.70;2.30;;;9.40;97.20;;;;;;1705881;29;20578;-66
2023/03/26 08:07:14;;;;;;;5.05;2.20;;;9.40;97.20;;;;;;1707695;29;20199;-67
2023/03/26 08:08:15;;;;;;;4.30;2.13;;;9.40;97.20;;;;;;1705456;29;20265;-66
2023/03/26 08:09:15;;;;;;;5.70;2.47;;;9.40;97.20;;;;;;1705612;29;20198;-66
2023/03/26 08:10:15;;;;;;;5.38;2.00;;;9.40;97.20;;;;;;1705315;29;20191;-66
2023/03/26 08:11:16;;;;;;;5.90;2.47;;;9.40;97.20;;;;;;1705519;29;20199;-65
2023/03/26 08:12:17;;;;;;;6.10;2.33;;;9.30;97.20;;;;;;1705719;29;20269;-67
2023/03/26 08:13:22;;;;;;;5.53;2.38;;;9.30;97.20;;;;;;1705717;29;20199;-66
2023/03/26 08:14:32;;;;;;;8.88;2.30;;;9.30;97.20;;;;;;1706542;29;20198;-65
2023/03/26 08:15:31;;;;;;;3.38;2.20;;;9.30;97.20;;;;;;1707425;29;20199;-65
2023/03/26 08:16:28;;;;;;;5.57;2.83;;;9.40;97.20;;;;;;1707626;29;20207;-66
2023/03/26 08:17:28;;;;;;;4.68;2.20;;;9.40;97.20;;;;;;1707720;28;20190;-66
2023/03/26 08:18:27;;;;;;;4.68;2.20;;;9.40;97.20;;;;;;1707805;29;20218;-65
2023/03/26 08:19:34;;;;;;;5.95;2.28;;;9.40;97.20;;;;;;1707776;28;20187;-67
2023/03/26 08:20:37;;;;;;;5.22;2.58;;;9.40;97.20;;;;;;1703387;29;20199;-65
2023/03/26 08:21:35;;;;;;;9.85;2.85;;;9.50;97.20;;;;;;1705666;29;20197;-67
2023/03/26 08:22:30;;;;;;;4.40;2.35;;;9.50;97.20;;;;;;1705352;29;20199;-67
2023/03/26 08:23:29;;;;;;;3.97;2.10;;;9.50;97.20;;;;;;1707630;28;20711;-66
2023/03/26 08:24:30;;;;;;;4.85;2.25;;;9.50;97.20;;;;;;1707588;29;20209;-66
2023/03/26 08:25:31;;;;;;;5.13;2.25;;;9.50;97.20;;;;;;1707315;28;20265;-66
2023/03/26 08:26:30;;;;;;;2.75;1.98;;;9.60;97.20;;;;;;1707551;29;20570;-66
2023/03/26 08:27:26;;;;;;;6.25;2.85;;;9.50;97.20;;;;;;1707776;28;20197;-67
2023/03/26 08:28:28;;;;;;;4.82;1.80;;;9.50;97.20;;;;;;1707478;29;20206;-65
2023/03/26 08:29:28;;;;;;;4.90;1.95;;;9.50;97.20;;;;;;1707732;28;20226;-66
2023/03/26 08:30:21;;;;;;;4.80;2.45;;;9.50;97.20;;;;;;1706364;29;20250;-65
2023/03/26 08:31:14;;;;;;;3.80;2.15;;;9.50;97.20;;;;;;1706163;29;20206;-66
2023/03/26 08:32:12;;;;;;;4.38;2.00;;;9.50;97.20;;;;;;1704981;29;20200;-65
2023/03/26 08:33:12;;;;;;;4.88;2.75;;;9.50;97.20;;;;;;1707477;28;20241;-65
2023/03/26 08:34:04;;;;;;;6.28;3.03;;;9.50;97.20;;;;;;1707535;29;20203;-65
2023/03/26 08:34:59;;;;;;;10.52;3.40;;;9.50;97.20;;;;;;1707508;28;20680;-65
2023/03/26 08:35:50;;;;;;;7.15;2.33;;;9.50;97.20;;;;;;1707346;28;20579;-65
2023/03/26 08:36:42;;;;;;;5.03;2.38;;;9.50;97.20;;;;;;1707436;29;20206;-66
2023/03/26 08:37:34;;;;;;;6.22;2.90;;;9.50;97.20;;;;;;1707662;28;20595;-65
2023/03/26 08:38:25;;;;;;;5.43;2.30;;;9.60;97.20;;;;;;1707526;29;20213;-66
2023/03/26 08:39:17;;;;;;;6.43;2.50;;;9.60;97.20;;;;;;1707598;29;20194;-66
2023/03/26 08:40:08;;;;;;;4.75;2.80;;;9.60;97.20;;;;;;1707345;28;20210;-66
2023/03/26 08:41:36;;;;;;;7.85;2.60;;;9.60;97.20;;;;;;1704773;29;20317;-65
2023/03/26 08:42:53;;;;;;;3.35;2.00;;;9.70;97.20;;;;;;1705218;29;20600;-66
2023/03/26 08:44:13;;;;;;;5.93;2.55;;;9.80;97.20;;;;;;1707386;29;20202;-66
2023/03/26 08:45:42;;;;;;;7.22;2.70;;;9.90;97.20;;;;;;1694880;28;20197;-65
2023/03/26 08:46:48;;;;;;;4.75;2.35;;;10.00;97.20;;;;;;1703885;28;20206;-66
2023/03/26 08:48:04;;;;;;;5.70;2.30;;;10.00;97.20;;;;;;1707035;29;20191;-66
2023/03/26 08:49:38;;;;;;;4.93;2.63;;;10.00;97.20;;;;;;1706374;29;20279;-66
2023/03/26 08:51:04;;;;;;;5.07;2.65;;;10.10;97.20;;;;;;1691481;29;20701;-66
2023/03/26 08:52:27;;;;;;;8.27;2.40;;;10.10;97.20;;;;;;1692354;29;20204;-67
2023/03/26 08:53:46;;;;;;;6.40;2.00;;;10.10;97.20;;;;;;1706193;29;20214;-65
2023/03/26 08:55:16;;;;;;;6.40;4.32;;;10.10;97.20;;;;;;1706527;29;20187;-67
2023/03/26 08:56:15;;;;;;;10.48;4.85;;;10.10;97.20;;;;;;1699352;29;20199;-66
2023/03/26 08:57:30;;;;;;;10.43;7.80;;;10.20;97.20;;;;;;1704916;29;20191;-65
2023/03/26 08:58:52;;;;;;;4.40;2.92;;;10.20;97.20;;;;;;1701290;29;20214;-67
2023/03/26 09:00:09;;;;;;;5.97;2.63;;;10.20;97.20;;;;;;1702075;29;20203;-66
2023/03/26 09:01:18;;;;;;;5.25;2.20;;;10.20;97.20;;;;;;1705537;29;20657;-66
2023/03/26 09:02:49;;;;;;;3.45;1.80;;;10.20;97.20;;;;;;1706426;29;20198;-66
2023/03/26 09:04:07;;;;;;;2.58;1.67;;;10.20;97.20;;;;;;1699452;28;20269;-66
2023/03/26 09:05:31;;;;;;;2.38;1.70;;;10.20;97.20;;;;;;1705349;29;20242;-66
2023/03/26 09:06:47;;;;;;;2.85;1.70;;;10.20;97.20;;;;;;1705711;29;20578;-65
2023/03/26 09:08:10;;;;;;;2.35;1.33;;;10.30;97.20;;;;;;1705228;29;20582;-66
2023/03/26 09:09:46;;;;;;;3.30;1.80;;;10.30;97.20;;;;;;1705685;29;20209;-67
2023/03/26 09:10:52;;;;;;;3.72;1.85;;;10.40;97.20;;;;;;1707354;28;20222;-66
2023/03/26 09:12:07;;;;;;;4.82;1.90;;;10.50;97.20;;;;;;1705797;29;20274;-67
2023/03/26 09:13:25;;;;;;;3.20;1.50;;;10.60;97.20;;;;;;1705161;29;20207;-66
2023/03/26 09:14:57;;;;;;;2.30;1.60;;;10.80;97.20;;;;;;1704799;28;20195;-66
2023/03/26 09:16:36;;;;;;;2.60;1.35;;;11.10;97.20;;;;;;1706300;29;20202;-65
2023/03/26 09:18:06;;;;;;;2.72;1.63;;;11.60;97.20;;;;;;1706483;29;20203;-66
2023/03/26 09:19:30;;;;;;;3.65;2.10;;;12.00;97.20;;;;;;1694266;29;20218;-66
2023/03/26 09:21:02;;;;;;;5.20;2.00;;;12.20;97.20;;;;;;1697281;29;20722;-65
2023/03/26 09:22:15;;;;;;;2.95;1.90;;;12.40;97.20;;;;;;1707380;29;20564;-65
2023/03/26 09:23:38;;;;;;;2.70;1.70;;;12.30;97.20;;;;;;1701172;28;20190;-65
2023/03/26 09:25:02;;;;;;;2.17;1.60;;;12.30;97.20;;;;;;1706820;29;20199;-65
2023/03/26 09:26:03;;;;;;;3.03;1.83;;;12.20;97.20;;;;;;1704642;28;20210;-65
2023/03/26 09:27:07;;;;;;;4.13;2.15;;;12.10;97.20;;;;;;1707509;28;20206;-66
2023/03/26 09:28:42;;;;;;;3.22;1.60;;;12.00;97.20;;;;;;1705288;29;20206;-66
2023/03/26 09:30:20;;;;;;;3.80;1.50;;;12.00;97.20;;;;;;1707279;29;20245;-65
2023/03/26 09:31:56;;;;;;;3.95;1.83;;;11.90;97.20;;;;;;1706905;29;20592;-65
2023/03/26 09:33:10;;;;;;;2.60;1.85;;;12.20;97.20;;;;;;1706297;29;20252;-65
2023/03/26 09:34:25;;;;;;;2.13;1.65;;;12.70;97.20;;;;;;1705706;29;20198;-66
2023/03/26 09:35:48;;;;;;;2.55;1.83;;;13.00;97.20;;;;;;1704921;29;20253;-65
2023/03/26 09:36:53;;;;;;;3.58;1.40;;;13.30;97.20;;;;;;1705345;29;20243;-65
2023/03/26 09:37:57;;;;;;;3.58;1.40;;;13.50;97.20;;;;;;1706038;29;20265;-68
2023/03/26 09:39:03;;;;;;;2.50;1.55;;;13.70;97.20;;;;;;1706555;29;20191;-67
2023/03/26 09:40:13;;;;;;;2.20;1.63;;;13.90;97.20;;;;;;1707322;29;20209;-67
2023/03/26 09:41:13;;;;;;;2.83;1.80;;;14.10;97.20;;;;;;1705931;29;20669;-65
2023/03/26 09:42:14;;;;;;;3.22;1.30;;;14.40;97.20;;;;;;1705869;29;20199;-69
2023/03/26 09:43:42;;;;;;;2.45;1.35;;;14.80;97.20;;;;;;1706114;29;20649;-66
2023/03/26 09:45:09;;;;;;;1.83;1.40;;;15.20;97.20;;;;;;1707033;29;20238;-66
2023/03/26 09:46:13;;;;;;;2.45;1.48;;;15.80;97.20;;;;;;1705407;29;20576;-66
2023/03/26 09:47:34;;;;;;;2.20;1.40;;;16.60;97.20;;;;;;1705944;29;20208;-65
2023/03/26 09:48:47;;;;;;;3.08;1.40;;;18.00;97.20;;;;;;1706048;29;20605;-66
2023/03/26 09:49:45;;;;;;;2.25;1.50;;;19.50;97.20;;;;;;1705235;29;20203;-66
2023/03/26 09:50:55;;;;;;;2.75;1.67;;;21.30;97.20;;;;;;1704879;28;20584;-67
2023/03/26 09:51:55;;;;;;;4.70;1.10;;;22.80;97.20;;;;;;1705996;29;20824;-68
2023/03/26 09:53:02;;;;;;;1.98;1.10;;;23.90;97.20;;;;;;1707079;28;20191;-65
2023/03/26 09:54:32;;;;;;;2.35;1.05;;;24.80;97.20;;;;;;1707272;28;20286;-67
2023/03/26 09:55:43;;;;;;;3.05;1.38;;;24.60;97.20;;;;;;1705273;29;20692;-66
2023/03/26 09:56:46;;;;;;;2.35;1.00;;;24.30;97.20;;;;;;1706857;29;20620;-66
2023/03/26 09:57:58;;;;;;;2.00;1.10;;;24.20;97.20;;;;;;1704713;29;20199;-66
2023/03/26 09:59:11;;;;;;;1.88;0.98;;;24.70;97.20;;;;;;1706200;29;20218;-66
2023/03/26 10:00:20;;;;;;;1.75;1.05;;;25.50;97.20;;;;;;1705036;29;20202;-66
2023/03/26 10:01:18;;;;;;;1.80;1.33;;;25.20;97.20;;;;;;1706657;29;20195;-68
2023/03/26 10:02:38;;;;;;;1.60;1.05;;;24.70;97.20;;;;;;1706991;29;20570;-66
2023/03/26 10:03:37;;;;;;;2.88;1.20;;;24.00;97.20;;;;;;1706236;29;20700;-69
2023/03/26 10:05:00;;;;;;;1.33;1.20;;;23.10;97.20;;;;;;1699895;28;20202;-65
2023/03/26 10:06:15;;;;;;;2.03;1.15;;;22.20;97.20;;;;;;1688591;29;20242;-67
2023/03/26 10:07:20;;;;;;;2.00;1.20;;;21.20;97.20;;;;;;1706048;29;20213;-65
2023/03/26 10:08:31;;;;;;;1.65;0.95;;;20.40;97.20;;;;;;1706810;29;20203;-66
2023/03/26 10:09:36;;;;;;;1.60;0.93;;;19.60;97.20;;;;;;1704521;29;20215;-67
2023/03/26 10:10:35;;;;;;;2.70;0.85;;;18.80;97.20;;;;;;1703189;29;20191;-66